Time;durP1;ratioP1;P1;durP2;ratioP2;P2;SDS_P1;SDS_P2;PMS_P1;PMS_P2;Temp;Humidity;BMP_temperature;BMP_pressure;BME280_temperature;BME280_humidity;BME280_pressure;Samples;Min_cycle;Max_cycle;Signal;HPM_P1;HPM_P2
2023/04/11 04:10:10;;;;;;;23.43;17.43;;;13.10;99.90;;;;;;4591055;19;20449;-31
2023/04/11 04:11:42;;;;;;;20.80;16.65;;;13.10;99.90;;;;;;4590607;19;20572;-30
2023/04/11 04:13:13;;;;;;;24.65;18.75;;;13.20;99.90;;;;;;4590658;19;20021;-31
2023/04/11 04:14:46;;;;;;;31.03;22.53;;;13.20;99.90;;;;;;4590696;19;20014;-30
2023/04/11 04:16:18;;;;;;;28.43;22.47;;;13.30;99.90;;;;;;4591273;19;20420;-31
2023/04/11 04:17:51;;;;;;;25.13;19.53;;;13.30;99.90;;;;;;4590895;19;20042;-30
2023/04/11 04:19:22;;;;;;;27.15;19.05;;;13.30;99.90;;;;;;4590813;19;20441;-29
2023/04/11 04:20:55;;;;;;;22.87;18.63;;;13.40;99.90;;;;;;4590867;19;20090;-30
2023/04/11 04:22:28;;;;;;;23.60;17.00;;;13.40;99.90;;;;;;4591407;19;20040;-30
2023/04/11 04:24:02;;;;;;;22.80;18.07;;;13.40;99.90;;;;;;4589646;19;20425;-30
2023/04/11 04:25:33;;;;;;;21.00;17.27;;;13.40;99.90;;;;;;4590160;19;20437;-30
2023/04/11 04:27:08;;;;;;;23.75;19.20;;;13.40;99.90;;;;;;4591002;19;20480;-31
2023/04/11 04:28:39;;;;;;;24.07;17.47;;;13.50;99.90;;;;;;4589768;19;20007;-30
2023/04/11 04:30:14;;;;;;;22.25;16.58;;;13.50;99.90;;;;;;4589203;19;20488;-30
2023/04/11 04:31:49;;;;;;;20.80;17.67;;;13.50;99.90;;;;;;4590354;19;20031;-30
2023/04/11 04:33:20;;;;;;;20.10;17.93;;;13.50;99.90;;;;;;4591021;19;20015;-30
2023/04/11 04:34:55;;;;;;;23.60;18.52;;;13.50;99.90;;;;;;4590773;19;20003;-30
2023/04/11 04:36:27;;;;;;;23.23;19.20;;;13.60;99.90;;;;;;4591007;19;20006;-30
2023/04/11 04:38:16;;;;;;;21.23;17.67;;;13.60;99.90;;;;;;4590211;19;20015;-30
2023/04/11 04:39:55;;;;;;;24.93;22.10;;;13.60;99.90;;;;;;4590234;19;20035;-30
2023/04/11 04:41:35;;;;;;;29.60;26.50;;;11.70;99.90;;;;;;4588986;19;20452;-29
2023/04/11 04:43:10;;;;;;;29.23;26.30;;;10.40;99.90;;;;;;4590596;19;20491;-29
2023/04/11 04:44:41;;;;;;;31.43;28.03;;;9.80;99.90;;;;;;4589905;19;20443;-30
2023/04/11 04:46:13;;;;;;;32.58;29.27;;;9.50;99.90;;;;;;4590228;19;20429;-29
2023/04/11 04:47:44;;;;;;;30.70;27.40;;;9.40;99.90;;;;;;4590558;19;20480;-29
2023/04/11 04:49:16;;;;;;;31.95;28.55;;;9.40;99.90;;;;;;4590171;19;20445;-30
2023/04/11 04:50:48;;;;;;;34.50;30.93;;;9.30;99.90;;;;;;4588756;19;20014;-30
2023/04/11 04:52:26;;;;;;;39.23;35.43;;;9.30;99.90;;;;;;4589644;19;20471;-30
2023/04/11 04:53:58;;;;;;;39.47;35.50;;;9.30;99.90;;;;;;4588716;19;20467;-30
2023/04/11 04:55:29;;;;;;;41.78;37.40;;;9.30;99.90;;;;;;4589876;19;20432;-30
2023/04/11 04:57:01;;;;;;;40.20;36.07;;;9.40;99.90;;;;;;4589641;19;20010;-30
2023/04/11 04:58:33;;;;;;;43.20;38.72;;;9.40;99.90;;;;;;4589907;19;20554;-30
2023/04/11 05:07:30;;;;;;;40.63;36.63;;;9.50;99.90;;;;;;4594283;19;20007;-30
2023/04/11 05:09:01;;;;;;;36.30;32.60;;;9.60;99.90;;;;;;4594435;19;20421;-30
2023/04/11 05:10:34;;;;;;;39.20;35.27;;;9.60;99.90;;;;;;4592006;19;20021;-30
2023/04/11 05:12:06;;;;;;;33.45;29.98;;;9.60;99.90;;;;;;4594595;19;20421;-30
2023/04/11 05:13:37;;;;;;;;;;;9.60;99.90;;;;;;4592881;19;20018;-30
2023/04/11 05:15:10;;;;;;;38.50;34.50;;;9.70;99.90;;;;;;4593971;19;19926;-30
2023/04/11 05:16:42;;;;;;;37.97;34.03;;;9.70;99.90;;;;;;4593562;19;20019;-30
2023/04/11 05:18:13;;;;;;;40.00;35.97;;;9.70;99.90;;;;;;4593987;19;20455;-30
2023/04/11 05:19:45;;;;;;;39.30;35.27;;;9.70;99.90;;;;;;4594138;19;20010;-30
2023/04/11 05:21:18;;;;;;;45.07;40.80;;;9.70;99.90;;;;;;4594414;19;20457;-30
2023/04/11 05:22:52;;;;;;;44.57;40.23;;;9.70;99.90;;;;;;4594530;19;20429;-30
2023/04/11 05:24:23;;;;;;;40.27;36.23;;;9.80;99.90;;;;;;4593572;19;20464;-30
2023/04/11 05:25:54;;;;;;;39.70;35.60;;;9.80;99.90;;;;;;4593145;19;20551;-30
2023/04/11 05:27:28;;;;;;;40.97;36.67;;;9.80;99.90;;;;;;4593645;19;20340;-30
2023/04/11 05:28:59;;;;;;;40.05;36.00;;;9.90;99.90;;;;;;4594436;19;20425;-30
2023/04/11 05:30:31;;;;;;;39.80;35.63;;;9.90;99.90;;;;;;4592550;19;20034;-30
2023/04/11 05:32:03;;;;;;;39.53;35.33;;;10.00;99.90;;;;;;4594130;19;20449;-30
2023/04/11 05:33:37;;;;;;;42.95;38.47;;;10.00;99.90;;;;;;4594105;19;21053;-30
2023/04/11 05:35:09;;;;;;;44.40;37.90;;;10.00;99.90;;;;;;4591899;19;20006;-30
2023/04/11 05:36:45;;;;;;;41.23;36.93;;;10.10;99.90;;;;;;4592285;19;20441;-30
2023/04/11 05:38:18;;;;;;;42.80;38.20;;;10.10;99.90;;;;;;4593927;19;20443;-30
2023/04/11 05:39:51;;;;;;;39.97;35.60;;;10.10;99.90;;;;;;4594013;19;20830;-30
2023/04/11 05:41:24;;;;;;;39.77;35.47;;;10.20;99.90;;;;;;4594718;19;20432;-30
2023/04/11 05:42:57;;;;;;;38.87;34.63;;;10.20;99.90;;;;;;4593639;19;20461;-30
2023/04/11 05:44:30;;;;;;;39.30;35.03;;;10.20;99.90;;;;;;4593641;19;21036;-30
2023/04/11 05:46:02;;;;;;;38.78;34.67;;;10.30;99.90;;;;;;4594282;19;20775;-30
2023/04/11 05:47:33;;;;;;;37.13;33.15;;;10.30;99.90;;;;;;4594375;19;20066;-30
2023/04/11 05:49:06;;;;;;;38.20;33.97;;;10.30;99.90;;;;;;4593398;19;20011;-30
2023/04/11 05:50:38;;;;;;;36.30;32.33;;;10.40;99.90;;;;;;4592425;19;20538;-30
2023/04/11 05:52:10;;;;;;;36.30;31.53;;;10.40;99.90;;;;;;4593525;19;20425;-30
2023/04/11 05:53:42;;;;;;;34.63;30.92;;;10.40;99.90;;;;;;4592994;19;20662;-30
2023/04/11 05:55:13;;;;;;;33.55;29.92;;;10.50;99.90;;;;;;4593256;19;20011;-30
2023/04/11 05:56:45;;;;;;;33.90;30.30;;;10.50;99.90;;;;;;4593805;19;20401;-30
2023/04/11 05:58:17;;;;;;;35.87;31.33;;;10.50;99.90;;;;;;4593984;19;20010;-30
2023/04/11 05:59:51;;;;;;;35.37;31.67;;;10.50;99.90;;;;;;4594058;19;20462;-30
2023/04/11 06:01:25;;;;;;;31.83;28.60;;;10.60;99.90;;;;;;4593223;19;20481;-30
2023/04/11 06:02:57;;;;;;;32.43;29.03;;;10.60;99.90;;;;;;4593395;19;20471;-30
2023/04/11 06:04:28;;;;;;;32.53;29.08;;;10.60;99.90;;;;;;4594201;19;20552;-30
2023/04/11 06:05:59;;;;;;;31.85;28.35;;;10.70;99.90;;;;;;4593589;19;20018;-30
2023/04/11 06:07:32;;;;;;;33.83;29.25;;;10.70;99.90;;;;;;4593478;19;20078;-30
2023/04/11 06:09:08;;;;;;;35.70;30.13;;;10.70;99.90;;;;;;4593244;19;20036;-30
2023/04/11 06:10:42;;;;;;;30.80;27.60;;;10.70;99.90;;;;;;4593624;19;20393;-30
2023/04/11 06:12:14;;;;;;;32.38;28.92;;;10.80;99.90;;;;;;4592249;19;20420;-30
2023/04/11 06:13:48;;;;;;;30.60;27.40;;;10.80;99.90;;;;;;4592748;19;20027;-30
2023/04/11 06:15:20;;;;;;;29.60;26.52;;;10.80;99.90;;;;;;4593344;19;20437;-30
2023/04/11 06:16:53;;;;;;;29.73;26.63;;;10.90;99.90;;;;;;4591659;19;20019;-30
2023/04/11 06:18:24;;;;;;;30.27;26.95;;;10.90;99.90;;;;;;4592982;19;20816;-30
2023/04/11 06:19:55;;;;;;;29.27;25.98;;;10.90;99.90;;;;;;4593085;19;20023;-30
2023/04/11 06:21:27;;;;;;;32.05;26.95;;;10.90;99.90;;;;;;4592274;19;20011;-30
2023/04/11 06:23:01;;;;;;;29.93;25.97;;;10.90;99.90;;;;;;4591805;19;20100;-30
2023/04/11 06:24:37;;;;;;;30.07;26.23;;;11.00;99.90;;;;;;4592242;19;20468;-30
2023/04/11 06:26:08;;;;;;;27.17;24.27;;;11.00;99.90;;;;;;4591637;19;20413;-30
2023/04/11 06:27:40;;;;;;;25.88;23.23;;;11.10;99.90;;;;;;4592102;19;20428;-30
2023/04/11 06:29:13;;;;;;;26.77;23.97;;;11.10;99.90;;;;;;4592729;19;19999;-30
2023/04/11 06:30:45;;;;;;;22.93;20.63;;;11.20;99.90;;;;;;4592643;19;20524;-30
2023/04/11 06:32:17;;;;;;;23.27;20.87;;;11.20;99.90;;;;;;4591619;19;20808;-30
2023/04/11 06:33:50;;;;;;;24.20;21.60;;;11.20;99.90;;;;;;4592709;19;20447;-30
2023/04/11 06:35:23;;;;;;;24.02;21.05;;;11.20;99.90;;;;;;4593007;19;20485;-30
2023/04/11 06:36:54;;;;;;;26.00;23.27;;;11.30;99.90;;;;;;4592429;19;20014;-30
2023/04/11 06:38:27;;;;;;;24.20;21.63;;;11.30;99.90;;;;;;4592919;19;20465;-30
2023/04/11 06:39:59;;;;;;;24.25;21.70;;;11.40;99.90;;;;;;4592930;19;20433;-30
2023/04/11 06:41:35;;;;;;;;;;;11.40;99.90;;;;;;4594342;19;20003;-30
2023/04/11 06:43:06;;;;;;;21.93;19.77;;;11.40;99.90;;;;;;4591289;19;19915;-30
2023/04/11 06:44:37;;;;;;;21.65;19.55;;;11.50;99.90;;;;;;4592392;19;20459;-30
2023/04/11 06:46:10;;;;;;;23.53;19.97;;;11.50;99.90;;;;;;4593042;19;20623;-30
2023/04/11 06:47:43;;;;;;;21.23;19.03;;;11.50;99.90;;;;;;4593127;19;20524;-30
2023/04/11 06:49:16;;;;;;;24.15;21.63;;;11.60;99.90;;;;;;4592192;19;20429;-30
2023/04/11 06:50:47;;;;;;;20.17;18.17;;;11.60;99.90;;;;;;4592795;19;20048;-30
2023/04/11 06:52:18;;;;;;;19.30;17.40;;;11.70;99.90;;;;;;4593221;19;20461;-30
2023/04/11 06:53:50;;;;;;;21.50;18.67;;;11.70;99.90;;;;;;4592748;19;20003;-30
2023/04/11 06:55:22;;;;;;;20.67;18.58;;;11.80;99.90;;;;;;4592648;19;20017;-30
2023/04/11 06:56:56;;;;;;;19.27;17.37;;;11.80;99.90;;;;;;4591129;19;20014;-30
2023/04/11 06:58:27;;;;;;;19.30;17.30;;;11.80;99.90;;;;;;4591984;19;20490;-30
2023/04/11 06:59:59;;;;;;;18.00;16.10;;;11.90;99.90;;;;;;4592262;19;20421;-30
2023/04/11 07:01:34;;;;;;;20.50;17.40;;;11.80;99.90;;;;;;4592451;19;20371;-30
2023/04/11 07:03:07;;;;;;;20.30;18.30;;;11.90;99.90;;;;;;4592358;19;20011;-30
2023/04/11 07:04:40;;;;;;;19.27;17.33;;;11.90;99.90;;;;;;4591477;19;20508;-30
2023/04/11 07:06:12;;;;;;;17.33;15.63;;;12.00;99.90;;;;;;4592226;19;20467;-30
2023/04/11 07:07:45;;;;;;;16.23;14.70;;;12.00;99.90;;;;;;4592484;19;20449;-30
2023/04/11 07:09:17;;;;;;;16.67;15.07;;;12.00;99.90;;;;;;4591794;19;20484;-30
2023/04/11 07:10:49;;;;;;;;;;;12.00;99.90;;;;;;4593639;19;20431;-30
2023/04/11 07:12:21;;;;;;;15.13;13.33;;;12.00;99.90;;;;;;4591956;19;20247;-30
2023/04/11 07:13:55;;;;;;;16.17;14.57;;;12.00;99.90;;;;;;4590661;19;20449;-30
2023/04/11 07:15:27;;;;;;;16.40;14.82;;;12.00;99.90;;;;;;4591714;19;20437;-30
2023/04/11 07:16:59;;;;;;;17.95;16.15;;;12.10;99.90;;;;;;4591354;19;20003;-30
2023/04/11 07:18:31;;;;;;;14.97;13.47;;;12.00;99.90;;;;;;4591477;19;20015;-30
2023/04/11 07:20:07;;;;;;;13.90;12.50;;;12.10;99.90;;;;;;4590446;19;20508;-30
2023/04/11 07:21:40;;;;;;;15.27;13.67;;;12.10;99.90;;;;;;4592150;19;20700;-30
2023/04/11 07:23:13;;;;;;;15.27;13.67;;;12.10;99.90;;;;;;4590778;19;20432;-30
2023/04/11 07:24:45;;;;;;;15.15;13.68;;;12.20;99.90;;;;;;4591429;19;20799;-30
2023/04/11 07:26:17;;;;;;;14.73;13.23;;;12.20;99.90;;;;;;4592254;19;20033;-30
2023/04/11 07:27:50;;;;;;;15.30;13.80;;;12.20;99.90;;;;;;4590505;19;20421;-30
2023/04/11 07:29:22;;;;;;;13.93;12.53;;;12.20;99.90;;;;;;4590090;19;21052;-30
2023/04/11 07:30:54;;;;;;;13.75;12.32;;;12.20;99.90;;;;;;4591358;19;20437;-30
2023/04/11 07:32:26;;;;;;;14.10;12.70;;;12.20;99.90;;;;;;4591684;19;20508;-30
2023/04/11 07:33:58;;;;;;;14.57;13.17;;;12.20;99.90;;;;;;4591738;19;20485;-30
2023/04/11 07:35:33;;;;;;;14.60;13.20;;;12.30;99.90;;;;;;4591678;19;20440;-30
2023/04/11 07:37:04;;;;;;;13.27;11.93;;;12.30;99.90;;;;;;4591352;19;20804;-30
2023/04/11 07:38:36;;;;;;;13.65;12.35;;;12.30;99.90;;;;;;4591521;19;20429;-30
2023/04/11 07:40:10;;;;;;;13.07;11.67;;;12.30;99.90;;;;;;4590167;19;20010;-30
2023/04/11 07:41:43;;;;;;;15.23;12.23;;;12.30;99.90;;;;;;4591105;19;20957;-30
2023/04/11 07:43:16;;;;;;;14.17;12.53;;;12.40;99.90;;;;;;4591630;19;20459;-30
2023/04/11 07:44:49;;;;;;;11.87;10.67;;;12.40;99.90;;;;;;4591359;19;20441;-30
2023/04/11 07:46:22;;;;;;;11.37;10.17;;;12.40;99.90;;;;;;4591465;19;20456;-30
2023/04/11 07:47:54;;;;;;;12.27;10.60;;;12.40;99.90;;;;;;4591098;19;20021;-30
2023/04/11 07:49:27;;;;;;;12.73;11.43;;;12.50;99.90;;;;;;4591080;19;20551;-30
2023/04/11 07:50:59;;;;;;;11.68;10.35;;;12.50;99.90;;;;;;4591366;19;20445;-30
2023/04/11 07:52:30;;;;;;;11.13;9.98;;;12.50;99.90;;;;;;4591568;19;20346;-30
2023/04/11 07:54:03;;;;;;;11.87;10.37;;;12.50;99.90;;;;;;4590031;19;20023;-30
2023/04/11 07:55:34;;;;;;;12.25;9.77;;;12.60;99.90;;;;;;4590872;19;20432;-30
2023/04/11 07:57:08;;;;;;;11.00;9.90;;;12.70;99.90;;;;;;4590243;19;20010;-30
2023/04/11 07:58:40;;;;;;;12.80;11.50;;;12.70;99.90;;;;;;4591080;19;20425;-30
2023/04/11 08:00:21;;;;;;;10.93;9.80;;;12.70;99.90;;;;;;4589772;19;20451;-30
2023/04/11 08:02:05;;;;;;;10.70;9.60;;;12.80;99.90;;;;;;4590788;19;20030;-30
2023/04/11 08:03:36;;;;;;;9.77;8.77;;;12.80;99.90;;;;;;4590753;19;20014;-30
2023/04/11 08:05:08;;;;;;;10.10;8.85;;;12.80;99.90;;;;;;4590301;19;20038;-30
2023/04/11 08:06:42;;;;;;;10.20;9.10;;;12.90;99.90;;;;;;4590386;19;20010;-30
2023/04/11 08:08:13;;;;;;;8.67;7.77;;;12.90;99.90;;;;;;4591175;19;20460;-30
2023/04/11 08:09:45;;;;;;;;;;;12.90;99.90;;;;;;4591385;19;20445;-30
2023/04/11 08:11:16;;;;;;;8.40;7.50;;;12.90;99.90;;;;;;4591273;19;20305;-30
2023/04/11 08:12:49;;;;;;;10.00;8.43;;;12.90;99.90;;;;;;4590721;19;20017;-30
2023/04/11 08:14:21;;;;;;;8.57;7.67;;;13.00;99.90;;;;;;4589617;19;21028;-30
2023/04/11 08:15:53;;;;;;;8.27;7.37;;;13.00;99.90;;;;;;4590551;19;20018;-30
2023/04/11 08:17:28;;;;;;;9.00;7.40;;;13.00;99.90;;;;;;4591715;19;20026;-30
2023/04/11 08:19:02;;;;;;;7.33;6.50;;;13.00;99.90;;;;;;4590833;19;20019;-30
2023/04/11 08:20:35;;;;;;;7.00;6.30;;;13.00;99.90;;;;;;4589714;19;20007;-30
2023/04/11 08:22:06;;;;;;;7.93;6.85;;;13.00;99.90;;;;;;4590698;19;20017;-30
2023/04/11 08:23:40;;;;;;;7.20;6.50;;;13.00;99.90;;;;;;4590649;19;20028;-30
2023/04/11 08:25:12;;;;;;;7.73;6.60;;;13.00;99.90;;;;;;4590553;19;20021;-30
2023/04/11 08:26:45;;;;;;;8.07;6.83;;;13.10;99.90;;;;;;4590428;19;20074;-30
2023/04/11 08:28:17;;;;;;;7.67;6.13;;;13.10;99.90;;;;;;4591175;19;20470;-30
2023/04/11 08:29:48;;;;;;;7.78;6.97;;;13.10;99.90;;;;;;4588470;19;20010;-30
2023/04/11 08:31:21;;;;;;;7.70;6.90;;;13.10;99.90;;;;;;4589877;19;20015;-30
2023/04/11 08:32:53;;;;;;;8.60;7.20;;;13.10;99.90;;;;;;4589564;19;20021;-30
2023/04/11 08:34:24;;;;;;;7.45;6.60;;;13.10;99.90;;;;;;4589146;19;20011;-30
2023/04/11 08:35:55;;;;;;;8.70;6.30;;;13.10;99.90;;;;;;4590413;19;20033;-30
2023/04/11 08:37:30;;;;;;;7.57;6.73;;;13.10;99.90;;;;;;4590538;19;20488;-30
2023/04/11 08:39:01;;;;;;;9.07;7.05;;;13.20;99.90;;;;;;4590571;19;20011;-30
2023/04/11 08:40:34;;;;;;;8.00;6.93;;;13.20;99.90;;;;;;4588773;19;20391;-30
2023/04/11 08:42:06;;;;;;;9.10;7.10;;;13.20;99.90;;;;;;4589329;19;20011;-30
2023/04/11 08:43:39;;;;;;;8.38;7.50;;;13.20;99.90;;;;;;4589751;19;20018;-30
2023/04/11 08:45:11;;;;;;;9.60;8.43;;;13.20;99.90;;;;;;4589013;19;20014;-30
2023/04/11 08:46:42;;;;;;;;;;;13.20;99.90;;;;;;4590403;19;20006;-30
2023/04/11 08:48:14;;;;;;;11.00;8.00;;;13.20;99.90;;;;;;4589653;19;19947;-30
2023/04/11 08:49:46;;;;;;;9.13;7.33;;;13.20;99.90;;;;;;4588464;19;20010;-30
2023/04/11 08:51:26;;;;;;;12.30;8.60;;;13.20;99.90;;;;;;4587446;19;20487;-30
2023/04/11 08:53:01;;;;;;;9.40;8.38;;;13.20;99.90;;;;;;4589329;19;20003;-30
2023/04/11 08:54:32;;;;;;;8.50;7.70;;;13.30;99.90;;;;;;4589582;19;20010;-30
2023/04/11 08:56:05;;;;;;;9.53;7.67;;;13.30;99.90;;;;;;4589896;19;20010;-30
2023/04/11 08:57:38;;;;;;;8.63;7.30;;;13.30;99.90;;;;;;4590380;19;20022;-30
2023/04/11 08:59:10;;;;;;;9.80;8.80;;;13.30;99.90;;;;;;4590562;19;20023;-30
2023/04/11 09:00:41;;;;;;;;;;;13.40;99.90;;;;;;4590982;19;20011;-30
2023/04/11 09:02:13;;;;;;;8.90;7.78;;;13.40;99.90;;;;;;4589929;19;19910;-30
2023/04/11 09:03:51;;;;;;;9.32;7.70;;;13.40;99.90;;;;;;4590361;19;20003;-30
2023/04/11 09:05:29;;;;;;;8.27;7.40;;;13.40;99.90;;;;;;4590721;19;20440;-30
2023/04/11 09:07:02;;;;;;;8.63;7.77;;;13.40;99.90;;;;;;4589617;19;20044;-30
2023/04/11 09:08:39;;;;;;;8.20;7.37;;;13.40;99.90;;;;;;4588851;19;20015;-30
2023/04/11 09:10:18;;;;;;;8.10;6.97;;;13.50;99.90;;;;;;4588621;19;20014;-30
2023/04/11 09:11:51;;;;;;;8.43;7.47;;;13.50;99.90;;;;;;4590315;19;20015;-30
2023/04/11 09:13:24;;;;;;;8.27;7.47;;;13.50;99.90;;;;;;4590032;19;20032;-30
2023/04/11 09:14:56;;;;;;;7.47;6.70;;;13.50;99.90;;;;;;4588383;19;20353;-30
2023/04/11 09:16:27;;;;;;;8.13;7.32;;;13.50;99.90;;;;;;4589680;19;20467;-30
2023/04/11 09:17:58;;;;;;;8.18;7.38;;;13.50;99.90;;;;;;4589882;19;20025;-30
2023/04/11 09:19:32;;;;;;;8.67;7.30;;;13.50;99.90;;;;;;4589512;19;20044;-30
2023/04/11 09:21:06;;;;;;;8.40;7.50;;;13.60;99.90;;;;;;4590001;19;20021;-30
2023/04/11 09:22:39;;;;;;;8.00;7.17;;;13.60;99.90;;;;;;4589732;19;20517;-30
2023/04/11 09:24:16;;;;;;;8.63;6.95;;;13.60;99.90;;;;;;4588860;19;20022;-30
2023/04/11 09:25:49;;;;;;;8.70;7.80;;;13.60;99.90;;;;;;4588090;19;20010;-30
2023/04/11 09:27:23;;;;;;;7.73;6.90;;;13.70;99.90;;;;;;4589109;19;20353;-30
2023/04/11 09:28:55;;;;;;;9.20;8.30;;;13.70;99.90;;;;;;4590397;19;20097;-30
2023/04/11 09:30:26;;;;;;;8.68;7.78;;;13.70;99.90;;;;;;4587049;19;20058;-30
2023/04/11 09:31:58;;;;;;;8.00;7.20;;;13.80;99.90;;;;;;4588998;19;20038;-30
2023/04/11 09:33:30;;;;;;;6.80;6.15;;;13.80;99.90;;;;;;4588647;19;20010;-30
2023/04/11 09:35:17;;;;;;;6.87;6.17;;;13.80;99.90;;;;;;4588970;19;20095;-30
2023/04/11 09:36:53;;;;;;;7.30;6.20;;;13.80;99.90;;;;;;4590344;19;20006;-30
2023/04/11 09:38:31;;;;;;;7.27;6.53;;;13.80;99.90;;;;;;4588087;19;20013;-30
2023/04/11 09:40:03;;;;;;;7.93;7.13;;;13.80;99.90;;;;;;4588761;19;20015;-30
2023/04/11 09:41:37;;;;;;;7.10;6.40;;;13.90;99.90;;;;;;4589584;19;20025;-30
2023/04/11 09:43:09;;;;;;;7.50;6.70;;;13.90;99.90;;;;;;4588105;19;20022;-30
2023/04/11 09:44:40;;;;;;;8.27;7.47;;;13.90;99.90;;;;;;4588839;19;20062;-30
2023/04/11 09:46:17;;;;;;;7.97;6.88;;;13.90;99.90;;;;;;4588070;19;20366;-30
2023/04/11 09:47:49;;;;;;;7.83;7.03;;;13.90;99.90;;;;;;4587781;19;20021;-30
2023/04/11 09:49:22;;;;;;;9.07;7.13;;;13.90;99.90;;;;;;4588145;19;20013;-30
2023/04/11 09:50:54;;;;;;;9.13;7.60;;;13.90;99.90;;;;;;4588773;19;20463;-30
2023/04/11 09:52:26;;;;;;;10.38;9.27;;;13.90;99.90;;;;;;4590762;19;20383;-30
2023/04/11 09:53:59;;;;;;;14.60;11.23;;;13.90;99.90;;;;;;4592511;19;20415;-30
2023/04/11 09:55:30;;;;;;;19.63;14.80;;;13.90;99.90;;;;;;4592947;19;20014;-30
2023/04/11 09:57:02;;;;;;;;;;;13.90;99.90;;;;;;4593139;19;20380;-30
2023/04/11 09:58:37;;;;;;;28.53;20.10;;;13.90;99.90;;;;;;4593260;19;20015;-30
2023/04/11 10:00:17;;;;;;;35.27;22.93;;;14.00;99.90;;;;;;4594032;19;20006;-30
2023/04/11 10:01:50;;;;;;;17.67;12.03;;;14.00;99.90;;;;;;4593423;19;20419;-30
2023/04/11 10:03:22;;;;;;;19.80;13.17;;;14.00;99.90;;;;;;4592334;19;20011;-30
2023/04/11 10:04:59;;;;;;;21.30;14.83;;;14.00;99.90;;;;;;4592927;19;20021;-30
2023/04/11 10:06:37;;;;;;;32.00;21.03;;;14.00;99.90;;;;;;4592449;19;20038;-30
2023/04/11 10:08:34;;;;;;;20.20;13.37;;;14.00;99.90;;;;;;4592033;19;20011;-30
2023/04/11 10:10:06;;;;;;;17.23;11.77;;;14.10;99.90;;;;;;4592824;19;20017;-30
2023/04/11 10:11:44;;;;;;;25.00;16.15;;;14.10;99.90;;;;;;4591998;19;20065;-30
2023/04/11 10:13:42;;;;;;;48.20;28.60;;;14.10;99.90;;;;;;4592265;19;20415;-30
2023/04/11 10:15:14;;;;;;;33.63;21.23;;;14.10;99.90;;;;;;4592455;19;20007;-30
2023/04/11 10:17:09;;;;;;;9.68;7.78;;;14.10;99.90;;;;;;4592386;19;19999;-30
2023/04/11 10:18:52;;;;;;;7.33;6.60;;;14.20;99.90;;;;;;4593004;19;20002;-30
2023/04/11 10:20:43;;;;;;;6.63;5.93;;;14.20;99.90;;;;;;4593857;19;20031;-30
2023/04/11 10:22:45;;;;;;;6.93;5.73;;;14.10;99.90;;;;;;4593323;19;20456;-30
2023/04/11 10:24:22;;;;;;;7.13;6.00;;;14.10;99.90;;;;;;4593086;19;20011;-30
2023/04/11 10:25:54;;;;;;;6.27;5.67;;;14.20;99.90;;;;;;4592791;19;20011;-30
2023/04/11 10:27:45;;;;;;;6.17;5.47;;;14.20;99.90;;;;;;4591893;19;20010;-30
2023/04/11 10:31:02;;;;;;;6.53;5.87;;;14.20;99.90;;;;;;4593483;19;20076;-30
2023/04/11 10:32:35;;;;;;;6.20;5.60;;;14.20;99.90;;;;;;4592415;19;20002;-30
2023/04/11 10:34:21;;;;;;;6.67;5.83;;;14.20;99.90;;;;;;4591774;19;20002;-30
2023/04/11 10:36:04;;;;;;;7.00;5.77;;;14.20;99.90;;;;;;4592507;19;20087;-30
2023/04/11 10:37:38;;;;;;;7.57;5.97;;;14.20;99.90;;;;;;4592750;19;20014;-30
2023/04/11 10:39:09;;;;;;;6.97;5.78;;;14.20;99.90;;;;;;4593265;19;20007;-30
2023/04/11 10:41:19;;;;;;;7.30;6.13;;;14.20;99.90;;;;;;4591424;19;20018;-31
2023/04/11 10:42:51;;;;;;;6.83;5.90;;;14.20;99.90;;;;;;4590253;19;20461;-31
2023/04/11 10:44:23;;;;;;;7.27;6.17;;;14.30;99.90;;;;;;4590379;19;20007;-30
2023/04/11 10:46:19;;;;;;;7.30;5.88;;;14.20;99.90;;;;;;4590049;19;20025;-30
2023/04/11 10:47:50;;;;;;;6.90;5.60;;;14.30;99.90;;;;;;4591063;19;20003;-30
2023/04/11 10:49:38;;;;;;;6.72;5.82;;;14.30;99.90;;;;;;4590580;19;20011;-30
2023/04/11 10:51:23;;;;;;;6.97;6.27;;;14.30;99.90;;;;;;4590347;19;20029;-30
2023/04/11 10:53:02;;;;;;;7.20;6.23;;;14.30;99.90;;;;;;4589951;19;20035;-30
2023/04/11 10:54:34;;;;;;;6.60;5.90;;;14.30;99.90;;;;;;4590244;19;20010;-30
2023/04/11 10:56:07;;;;;;;7.33;5.97;;;14.30;99.90;;;;;;4589986;19;20480;-30
2023/04/11 10:58:04;;;;;;;10.57;9.23;;;14.30;99.90;;;;;;4590350;19;20007;-30
2023/04/11 10:59:36;;;;;;;19.13;13.73;;;14.40;99.90;;;;;;4590337;19;20530;-30
2023/04/11 11:01:15;;;;;;;8.07;7.10;;;14.40;99.90;;;;;;4590400;19;20010;-30
2023/04/11 11:02:46;;;;;;;6.93;5.83;;;14.40;99.90;;;;;;4589181;19;20023;-30
2023/04/11 11:04:23;;;;;;;6.93;5.88;;;14.40;99.90;;;;;;4590773;19;20073;-30
2023/04/11 11:05:57;;;;;;;7.90;7.07;;;14.50;99.90;;;;;;4590545;19;20003;-30
2023/04/11 11:07:30;;;;;;;6.57;5.73;;;14.50;99.90;;;;;;4589858;19;20491;-30
2023/04/11 11:09:20;;;;;;;5.73;5.00;;;14.50;99.90;;;;;;4590053;19;20480;-30
2023/04/11 11:10:55;;;;;;;7.30;5.60;;;14.50;99.90;;;;;;4589266;19;20338;-31
2023/04/11 11:12:28;;;;;;;6.47;5.20;;;14.50;99.90;;;;;;4590125;19;20010;-31
2023/04/11 11:14:00;;;;;;;5.70;4.97;;;14.60;99.90;;;;;;4590653;19;20014;-30
2023/04/11 11:15:36;;;;;;;;;;;14.60;99.90;;;;;;4593175;19;20018;-31
2023/04/11 11:17:09;;;;;;;6.47;5.63;;;14.60;99.90;;;;;;4590692;19;19915;-30
2023/04/11 11:18:49;;;;;;;6.87;6.17;;;14.60;99.90;;;;;;4591196;19;20070;-30
2023/04/11 11:20:22;;;;;;;7.57;6.77;;;14.70;99.90;;;;;;4590825;19;20473;-30
2023/04/11 11:21:54;;;;;;;7.15;6.22;;;14.70;99.90;;;;;;4591552;19;20014;-30
2023/04/11 11:23:56;;;;;;;6.50;5.70;;;14.70;99.90;;;;;;4591821;19;20030;-30
2023/04/11 11:25:27;;;;;;;;;;;14.70;99.90;;;;;;4592646;19;20041;-30
2023/04/11 11:26:58;;;;;;;10.60;7.60;;;14.70;99.90;;;;;;4592303;19;20358;-30
2023/04/11 11:28:31;;;;;;;6.30;5.17;;;14.70;99.90;;;;;;4591506;19;20070;-31
2023/04/11 11:30:09;;;;;;;8.32;5.38;;;14.70;99.90;;;;;;4589326;19;20021;-30
2023/04/11 11:31:44;;;;;;;23.88;15.50;;;14.70;99.90;;;;;;4591619;19;20018;-30
2023/04/11 11:33:17;;;;;;;8.80;7.47;;;14.70;99.90;;;;;;4592193;19;20007;-30
2023/04/11 11:34:48;;;;;;;7.40;6.23;;;14.70;99.90;;;;;;4591248;19;20015;-30
2023/04/11 11:36:20;;;;;;;7.63;6.33;;;14.80;99.90;;;;;;4591790;19;20074;-30
2023/04/11 11:37:52;;;;;;;6.38;5.63;;;14.80;99.90;;;;;;4590763;19;20056;-30
2023/04/11 11:39:24;;;;;;;16.70;10.87;;;14.80;99.90;;;;;;4591534;19;20014;-30
2023/04/11 11:40:56;;;;;;;17.65;11.43;;;14.80;99.90;;;;;;4591385;19;20011;-30
2023/04/11 11:42:28;;;;;;;14.17;10.00;;;14.80;99.90;;;;;;4591381;19;20070;-30
2023/04/11 11:44:03;;;;;;;11.27;7.97;;;14.80;99.90;;;;;;4590479;19;20003;-30
2023/04/11 11:45:35;;;;;;;7.03;5.20;;;14.80;99.90;;;;;;4591448;19;20007;-30
2023/04/11 11:47:16;;;;;;;6.40;5.05;;;14.80;99.90;;;;;;4590328;19;20014;-31
2023/04/11 11:49:02;;;;;;;5.53;4.70;;;14.80;99.90;;;;;;4591016;19;20017;-30
2023/04/11 11:50:33;;;;;;;6.67;4.73;;;14.80;99.90;;;;;;4590577;19;20011;-30
2023/04/11 11:52:05;;;;;;;;;;;14.80;99.90;;;;;;4592696;19;20054;-30
2023/04/11 11:53:36;;;;;;;11.87;8.53;;;14.80;99.90;;;;;;4591204;19;19970;-30
2023/04/11 11:55:29;;;;;;;9.45;7.95;;;14.80;99.90;;;;;;4591452;19;20448;-30
2023/04/11 11:57:00;;;;;;;11.30;9.25;;;14.80;99.90;;;;;;4590964;19;20103;-31
2023/04/11 11:58:42;;;;;;;11.73;9.23;;;14.80;99.90;;;;;;4591348;19;20031;-30
2023/04/11 12:00:14;;;;;;;7.03;5.60;;;14.80;99.90;;;;;;4590761;19;20005;-30
2023/04/11 12:01:48;;;;;;;5.37;4.57;;;14.80;99.90;;;;;;4590836;19;20015;-31
2023/04/11 12:03:22;;;;;;;5.40;4.75;;;14.80;99.90;;;;;;4590315;19;20602;-30
2023/04/11 12:05:03;;;;;;;7.03;4.90;;;14.80;99.90;;;;;;4589963;19;20014;-31
2023/04/11 12:06:35;;;;;;;5.40;4.53;;;14.80;99.90;;;;;;4591441;19;20449;-30
2023/04/11 12:08:07;;;;;;;5.40;4.78;;;14.90;99.90;;;;;;4590803;19;20082;-31
2023/04/11 12:09:40;;;;;;;5.97;4.68;;;14.90;99.90;;;;;;4590268;19;20411;-30
2023/04/11 12:11:14;;;;;;;6.38;4.95;;;14.90;99.90;;;;;;4590689;19;20024;-30
2023/04/11 12:12:48;;;;;;;6.32;4.85;;;14.90;99.90;;;;;;4590339;19;20002;-31
2023/04/11 12:14:22;;;;;;;6.37;4.97;;;14.90;99.90;;;;;;4588835;19;20018;-31
2023/04/11 12:15:56;;;;;;;6.13;4.90;;;14.90;99.90;;;;;;4590990;19;20504;-31
2023/04/11 12:17:32;;;;;;;6.10;5.37;;;14.90;99.90;;;;;;4591157;19;20021;-31
2023/04/11 12:19:04;;;;;;;6.63;5.73;;;15.00;99.90;;;;;;4590914;19;20048;-31
2023/04/11 12:20:37;;;;;;;6.20;5.13;;;15.00;99.90;;;;;;4589555;19;20079;-31
2023/04/11 12:22:09;;;;;;;;;;;15.00;99.90;;;;;;4591488;19;20010;-31
2023/04/11 12:23:40;;;;;;;5.45;4.45;;;15.00;99.90;;;;;;4591020;19;19948;-30
2023/04/11 12:25:15;;;;;;;6.30;5.15;;;15.00;99.90;;;;;;4591205;19;20456;-31